Time;durP1;ratioP1;P1;durP2;ratioP2;P2;SDS_P1;SDS_P2;PMS_P1;PMS_P2;Temp;Humidity;BMP_temperature;BMP_pressure;BME280_temperature;BME280_humidity;BME280_pressure;Samples;Min_cycle;Max_cycle;Signal;HPM_P1;HPM_P2
2022/03/17 00:00:13;;;;;;;38.80;26.13;;;12.50;30.00;;;;;;4929186;28;20731;-77
2022/03/17 00:02:39;;;;;;;38.08;26.55;;;12.50;29.80;;;;;;4943262;28;20456;-74
2022/03/17 00:05:09;;;;;;;41.58;26.55;;;12.40;30.30;;;;;;4952286;28;20407;-74
2022/03/17 00:07:36;;;;;;;40.40;26.67;;;12.50;29.80;;;;;;4950369;28;20412;-75
2022/03/17 00:10:04;;;;;;;39.90;26.75;;;12.50;29.90;;;;;;4950508;29;20417;-76
2022/03/17 00:12:30;;;;;;;36.92;25.65;;;12.40;30.50;;;;;;4945723;29;20518;-75
2022/03/17 00:14:55;;;;;;;39.50;27.30;;;12.30;30.50;;;;;;4941360;28;20439;-75
2022/03/17 00:17:21;;;;;;;42.07;26.23;;;12.40;30.20;;;;;;4956502;28;20415;-76
2022/03/17 00:19:47;;;;;;;40.67;26.87;;;12.40;29.90;;;;;;4937196;28;20467;-76
2022/03/17 00:22:15;;;;;;;42.00;28.27;;;12.30;30.70;;;;;;4933285;28;20433;-74
2022/03/17 00:24:43;;;;;;;44.88;28.30;;;12.50;30.50;;;;;;4927806;28;20419;-74
2022/03/17 00:27:09;;;;;;;40.00;26.95;;;12.40;30.50;;;;;;4937340;28;20484;-75
2022/03/17 00:29:36;;;;;;;41.25;27.75;;;12.40;30.40;;;;;;4934651;28;20431;-76
2022/03/17 00:32:03;;;;;;;39.63;26.10;;;12.30;30.60;;;;;;4932346;28;20932;-75
2022/03/17 00:34:29;;;;;;;39.80;27.05;;;12.30;30.80;;;;;;4943341;28;20407;-75
2022/03/17 00:36:55;;;;;;;39.43;27.30;;;12.30;31.10;;;;;;4927327;28;20403;-77
2022/03/17 00:39:21;;;;;;;39.28;26.88;;;12.30;30.50;;;;;;4933981;29;20407;-75
2022/03/17 00:41:47;;;;;;;41.97;27.55;;;12.30;30.50;;;;;;4935049;28;20426;-76
2022/03/17 00:44:13;;;;;;;40.85;27.38;;;12.20;30.90;;;;;;4919801;28;20920;-77
2022/03/17 00:46:39;;;;;;;41.20;27.33;;;12.30;31.00;;;;;;4936050;28;20407;-77
2022/03/17 00:49:05;;;;;;;42.20;27.50;;;12.30;31.30;;;;;;4933486;28;20768;-77
2022/03/17 00:51:30;;;;;;;38.55;27.48;;;12.30;31.40;;;;;;4929911;28;20483;-77
2022/03/17 00:53:56;;;;;;;39.67;26.90;;;12.30;30.90;;;;;;4926160;28;20479;-77
2022/03/17 00:56:22;;;;;;;39.97;26.38;;;12.30;31.00;;;;;;4950022;28;20415;-76
2022/03/17 00:58:49;;;;;;;42.53;27.00;;;12.30;30.90;;;;;;4939379;29;20399;-77
2022/03/17 01:01:16;;;;;;;40.10;27.17;;;12.30;30.90;;;;;;4933911;29;20451;-76
2022/03/17 01:03:43;;;;;;;41.75;27.73;;;12.30;30.70;;;;;;4933027;28;20442;-76
2022/03/17 01:06:08;;;;;;;39.05;26.38;;;12.20;31.30;;;;;;4932656;28;20788;-75
2022/03/17 01:08:34;;;;;;;39.13;26.65;;;12.30;30.80;;;;;;4941406;28;20412;-76
2022/03/17 01:11:00;;;;;;;41.30;27.27;;;12.20;30.80;;;;;;4933522;29;20399;-76
2022/03/17 01:13:25;;;;;;;42.78;27.10;;;12.20;31.20;;;;;;4916750;28;20412;-76
2022/03/17 01:15:51;;;;;;;43.60;28.23;;;12.20;30.90;;;;;;4937373;28;20396;-76
2022/03/17 01:18:17;;;;;;;41.60;27.85;;;12.20;31.40;;;;;;4932185;28;20503;-76
2022/03/17 01:20:42;;;;;;;42.17;27.33;;;12.10;31.20;;;;;;4933730;28;20804;-76
2022/03/17 01:23:08;;;;;;;40.30;27.60;;;12.20;31.00;;;;;;4933131;28;20428;-76
2022/03/17 01:25:34;;;;;;;42.20;27.33;;;12.20;30.80;;;;;;4932843;28;20404;-76
2022/03/17 01:27:59;;;;;;;41.83;27.27;;;12.20;31.40;;;;;;4932262;28;20408;-76
2022/03/17 01:30:26;;;;;;;40.30;28.67;;;12.10;31.20;;;;;;4931185;28;22120;-76
2022/03/17 01:32:51;;;;;;;41.13;27.73;;;12.10;31.40;;;;;;4940888;28;20476;-78
2022/03/17 01:35:17;;;;;;;41.13;28.10;;;12.20;31.10;;;;;;4934005;28;20404;-77
2022/03/17 01:37:43;;;;;;;42.03;27.57;;;12.20;31.30;;;;;;4931804;29;20904;-77
2022/03/17 01:40:09;;;;;;;44.10;27.17;;;12.10;31.50;;;;;;4933125;28;20836;-77
2022/03/17 01:42:35;;;;;;;39.55;26.95;;;12.20;30.80;;;;;;4918735;28;20683;-76
2022/03/17 01:45:02;;;;;;;45.05;28.45;;;12.20;30.70;;;;;;4913026;28;20486;-76
2022/03/17 01:47:28;;;;;;;38.60;27.17;;;12.10;30.90;;;;;;4932882;28;20443;-76
2022/03/17 01:49:57;;;;;;;38.60;26.73;;;12.20;30.80;;;;;;4932522;29;20897;-77
2022/03/17 01:52:23;;;;;;;44.67;28.73;;;12.20;31.30;;;;;;4942176;28;20423;-75
2022/03/17 01:54:50;;;;;;;41.85;27.50;;;12.30;30.60;;;;;;4932111;28;20403;-75
2022/03/17 01:57:16;;;;;;;41.60;27.90;;;12.20;31.70;;;;;;4932193;29;20828;-77
2022/03/17 01:59:42;;;;;;;46.53;29.20;;;12.20;30.90;;;;;;4932168;28;20860;-77
2022/03/17 02:02:10;;;;;;;44.50;28.50;;;12.10;31.00;;;;;;4931570;28;20523;-76
2022/03/17 02:04:36;;;;;;;45.47;28.92;;;12.20;30.40;;;;;;4915197;28;20400;-75
2022/03/17 02:07:05;;;;;;;45.50;29.20;;;12.10;30.70;;;;;;4931540;28;20915;-77
2022/03/17 02:09:31;;;;;;;41.90;29.05;;;12.10;30.90;;;;;;4946761;28;20919;-78
2022/03/17 02:14:47;;;;;;;45.45;28.98;;;12.10;31.10;;;;;;4930077;29;20541;-76
2022/03/17 02:17:14;;;;;;;40.35;27.42;;;12.10;30.80;;;;;;4933516;28;20409;-74
2022/03/17 02:19:39;;;;;;;42.55;28.75;;;12.10;31.20;;;;;;4945756;28;20411;-76
2022/03/17 02:22:06;;;;;;;40.33;27.10;;;12.10;31.30;;;;;;4947464;29;20444;-75
2022/03/17 02:27:18;;;;;;;45.07;29.03;;;12.20;31.10;;;;;;4941641;29;20449;-75
2022/03/17 02:29:44;;;;;;;43.88;29.25;;;12.10;31.40;;;;;;4936016;28;20908;-76
2022/03/17 02:32:09;;;;;;;43.28;28.90;;;12.20;30.70;;;;;;4940936;28;20411;-75
2022/03/17 02:34:35;;;;;;;45.60;28.73;;;12.20;31.10;;;;;;4925630;28;20407;-76
2022/03/17 02:37:01;;;;;;;41.97;28.63;;;12.10;31.30;;;;;;4931196;28;20403;-76
2022/03/17 02:39:26;;;;;;;44.35;29.63;;;12.10;30.80;;;;;;4931505;29;20400;-76
2022/03/17 02:41:52;;;;;;;42.88;29.35;;;12.00;31.30;;;;;;4931309;28;20423;-76
2022/03/17 02:44:17;;;;;;;54.88;30.25;;;12.10;31.70;;;;;;4931414;29;20407;-75
2022/03/17 02:46:43;;;;;;;44.15;29.77;;;12.10;31.20;;;;;;4911210;29;20400;-76
2022/03/17 02:49:08;;;;;;;44.05;29.58;;;12.10;31.20;;;;;;4947718;28;20405;-76
2022/03/17 02:51:34;;;;;;;42.80;29.00;;;12.20;30.90;;;;;;4930714;28;20511;-76
2022/03/17 02:54:00;;;;;;;46.10;29.87;;;12.20;30.70;;;;;;4931399;28;20477;-77
2022/03/17 02:56:26;;;;;;;45.17;29.43;;;12.20;30.70;;;;;;4931056;28;20412;-77
2022/03/17 02:58:52;;;;;;;44.45;29.77;;;12.20;31.10;;;;;;4930953;29;20407;-76
2022/03/17 03:01:17;;;;;;;45.00;29.42;;;12.40;30.00;;;;;;4930728;28;20430;-76
2022/03/17 03:03:43;;;;;;;43.25;28.92;;;12.30;30.40;;;;;;4931234;28;20407;-75
2022/03/17 03:06:08;;;;;;;45.38;29.60;;;12.30;30.20;;;;;;4948591;28;20416;-76
2022/03/17 03:08:34;;;;;;;48.10;30.00;;;12.40;30.30;;;;;;4947270;28;20888;-75
2022/03/17 03:11:00;;;;;;;45.17;31.67;;;12.30;30.10;;;;;;4941988;28;20404;-76
2022/03/17 03:13:26;;;;;;;45.40;30.13;;;12.20;30.50;;;;;;4936610;29;20408;-74
2022/03/17 03:15:51;;;;;;;48.15;30.95;;;12.20;31.60;;;;;;4929889;28;20541;-75
2022/03/17 03:18:18;;;;;;;44.92;30.70;;;12.10;31.10;;;;;;4929513;28;20447;-76
2022/03/17 03:20:44;;;;;;;48.70;31.17;;;12.00;31.30;;;;;;4930583;28;20426;-76
2022/03/17 03:23:10;;;;;;;47.30;31.52;;;12.10;31.40;;;;;;4930104;28;20765;-75
2022/03/17 03:25:36;;;;;;;45.70;29.70;;;12.10;31.60;;;;;;4932135;28;20404;-74
2022/03/17 03:28:06;;;;;;;49.20;31.73;;;12.10;31.10;;;;;;4941017;28;20407;-74
2022/03/17 03:30:31;;;;;;;48.58;31.02;;;12.10;31.40;;;;;;4929043;29;20502;-75
2022/03/17 03:32:57;;;;;;;49.05;32.75;;;12.00;31.90;;;;;;4930535;28;20913;-76
2022/03/17 03:38:07;;;;;;;47.35;31.67;;;12.20;30.90;;;;;;4930182;29;20435;-75
2022/03/17 03:40:32;;;;;;;47.67;30.87;;;12.20;31.00;;;;;;4932849;28;20892;-76
2022/03/17 03:42:58;;;;;;;49.73;31.27;;;12.30;31.20;;;;;;4934252;28;20903;-76
2022/03/17 03:45:23;;;;;;;46.33;31.08;;;12.30;31.10;;;;;;4952489;28;20422;-76
2022/03/17 03:47:49;;;;;;;48.15;31.40;;;12.30;30.60;;;;;;4934701;28;20443;-77
2022/03/17 03:50:15;;;;;;;49.50;32.65;;;12.30;30.50;;;;;;4935208;28;20416;-77
2022/03/17 03:52:41;;;;;;;49.45;30.80;;;12.30;30.90;;;;;;4935193;28;20410;-76
2022/03/17 03:55:07;;;;;;;51.65;32.63;;;12.40;30.50;;;;;;4935483;28;20419;-77
2022/03/17 03:57:33;;;;;;;50.20;33.07;;;12.30;31.00;;;;;;4934589;29;20939;-75
2022/03/17 03:59:58;;;;;;;50.50;32.30;;;12.20;31.30;;;;;;4934644;28;20416;-75
2022/03/17 04:02:24;;;;;;;48.23;31.57;;;12.20;31.40;;;;;;4934585;28;20426;-77
2022/03/17 04:04:49;;;;;;;53.10;31.97;;;12.30;31.10;;;;;;4914287;28;20470;-77
2022/03/17 04:07:17;;;;;;;48.08;32.10;;;12.30;31.70;;;;;;4932735;28;20459;-75
2022/03/17 04:09:43;;;;;;;49.73;32.70;;;12.30;32.10;;;;;;4931451;28;20465;-76
2022/03/17 04:12:11;;;;;;;47.28;31.90;;;12.40;32.30;;;;;;4935247;28;20407;-76
2022/03/17 04:14:37;;;;;;;51.38;34.08;;;12.40;32.90;;;;;;4932438;28;20431;-75
2022/03/17 04:17:04;;;;;;;56.55;35.08;;;12.30;33.60;;;;;;4931382;28;20420;-77
2022/03/17 04:19:30;;;;;;;50.08;33.50;;;12.10;35.20;;;;;;4934167;28;20469;-77
2022/03/17 04:21:56;;;;;;;51.33;33.30;;;12.10;35.70;;;;;;4931236;28;20509;-76
2022/03/17 04:24:22;;;;;;;55.73;34.20;;;12.10;36.10;;;;;;4923139;29;20402;-77
2022/03/17 04:26:48;;;;;;;56.75;35.88;;;12.00;36.50;;;;;;4934491;28;20485;-78
2022/03/17 04:29:14;;;;;;;54.05;35.00;;;11.90;37.40;;;;;;4934288;29;20400;-77
2022/03/17 04:31:41;;;;;;;55.45;36.20;;;11.90;38.20;;;;;;4934974;28;20408;-78
2022/03/17 04:34:08;;;;;;;53.25;35.97;;;11.90;38.60;;;;;;4937287;28;20461;-77
2022/03/17 04:36:34;;;;;;;54.77;37.00;;;11.80;39.90;;;;;;4937475;28;20650;-77
2022/03/17 04:39:01;;;;;;;56.88;38.08;;;11.80;41.00;;;;;;4939200;28;20403;-77
2022/03/17 04:41:26;;;;;;;60.92;36.55;;;11.70;42.90;;;;;;4957224;28;20466;-77
2022/03/17 04:43:52;;;;;;;59.03;37.65;;;11.70;43.60;;;;;;4929056;29;20399;-76
2022/03/17 04:46:18;;;;;;;63.05;38.85;;;11.60;45.50;;;;;;4933486;28;20396;-77
2022/03/17 04:48:44;;;;;;;60.13;39.88;;;11.50;48.10;;;;;;4927463;28;20407;-77
2022/03/17 04:51:09;;;;;;;61.80;40.70;;;11.40;49.80;;;;;;4933966;28;20888;-75
2022/03/17 04:53:35;;;;;;;60.07;39.23;;;11.30;52.10;;;;;;4934249;28;20407;-77
2022/03/17 04:56:03;;;;;;;63.63;41.00;;;11.30;52.80;;;;;;4933827;28;20439;-75
2022/03/17 04:58:31;;;;;;;63.70;39.97;;;11.40;53.30;;;;;;4933003;28;20411;-76
2022/03/17 05:00:57;;;;;;;64.20;42.42;;;11.30;54.40;;;;;;4931127;28;20654;-76
2022/03/17 05:03:24;;;;;;;63.03;41.70;;;11.20;57.20;;;;;;4955537;28;20895;-77
2022/03/17 05:05:50;;;;;;;63.38;40.35;;;11.30;57.30;;;;;;4934032;28;20780;-77
2022/03/17 05:08:16;;;;;;;72.15;43.75;;;11.20;59.10;;;;;;4929314;28;20410;-77
2022/03/17 05:10:43;;;;;;;68.88;43.00;;;11.10;62.50;;;;;;4933870;28;20414;-77
2022/03/17 05:13:10;;;;;;;72.85;44.72;;;11.00;64.00;;;;;;4933133;29;20408;-76
2022/03/17 05:15:36;;;;;;;74.47;45.00;;;10.90;65.60;;;;;;4933537;28;20765;-76
2022/03/17 05:18:03;;;;;;;77.45;45.08;;;10.80;69.30;;;;;;4931418;28;20450;-75
2022/03/17 05:20:28;;;;;;;72.05;45.25;;;10.80;69.40;;;;;;4953631;28;20474;-76
2022/03/17 05:22:54;;;;;;;71.60;44.28;;;10.80;70.30;;;;;;4932925;28;20399;-76
2022/03/17 05:25:20;;;;;;;70.07;44.17;;;10.80;72.70;;;;;;4938740;28;20412;-76
2022/03/17 05:27:48;;;;;;;76.53;46.70;;;10.90;72.30;;;;;;4930580;28;20439;-75
2022/03/17 05:30:16;;;;;;;74.25;46.28;;;10.80;72.30;;;;;;4939038;28;20471;-77
2022/03/17 05:32:43;;;;;;;80.68;45.83;;;10.90;75.20;;;;;;4938036;29;20438;-77
2022/03/17 05:35:10;;;;;;;78.57;46.60;;;10.90;74.60;;;;;;4933090;28;20435;-75
2022/03/17 05:37:36;;;;;;;78.47;46.25;;;10.90;75.90;;;;;;4913911;29;20407;-75
2022/03/17 05:40:07;;;;;;;75.68;46.55;;;10.90;77.50;;;;;;4947259;28;20513;-75
2022/03/17 05:42:33;;;;;;;82.35;45.25;;;10.90;77.50;;;;;;4933346;29;20882;-75
2022/03/17 05:44:59;;;;;;;73.32;45.80;;;10.90;77.30;;;;;;4935082;28;20436;-75
2022/03/17 05:47:24;;;;;;;81.37;47.37;;;11.00;73.90;;;;;;4934337;28;20491;-77
2022/03/17 05:49:50;;;;;;;80.40;44.37;;;10.90;77.70;;;;;;4935585;28;20415;-75
2022/03/17 05:52:15;;;;;;;76.77;47.27;;;11.00;79.60;;;;;;4917666;28;21139;-75
2022/03/17 05:54:41;;;;;;;80.40;44.50;;;11.20;78.90;;;;;;4934540;28;20403;-77
2022/03/17 05:57:10;;;;;;;75.85;43.22;;;11.10;80.70;;;;;;4918837;28;20423;-77
2022/03/17 05:59:39;;;;;;;67.68;39.05;;;11.20;81.30;;;;;;4950694;28;20892;-75
2022/03/17 06:02:05;;;;;;;73.03;40.03;;;11.20;83.10;;;;;;4930970;28;20435;-76
2022/03/17 06:04:31;;;;;;;70.70;38.88;;;11.20;85.90;;;;;;4932813;28;20408;-77
2022/03/17 06:06:56;;;;;;;68.00;36.83;;;11.20;87.00;;;;;;4935139;28;20412;-75
2022/03/17 06:09:22;;;;;;;58.60;33.10;;;11.10;90.10;;;;;;4922107;28;20400;-75
2022/03/17 06:11:47;;;;;;;51.00;29.67;;;11.10;93.20;;;;;;4930118;28;20412;-74
2022/03/17 06:14:13;;;;;;;51.17;30.83;;;11.00;94.40;;;;;;4929468;28;20825;-75
2022/03/17 06:16:38;;;;;;;54.90;28.30;;;10.90;95.90;;;;;;4943164;28;20404;-74
2022/03/17 06:19:04;;;;;;;49.00;29.25;;;10.80;95.60;;;;;;4938562;28;20733;-75
2022/03/17 06:21:30;;;;;;;53.38;30.95;;;10.70;97.40;;;;;;4931177;28;20416;-74
2022/03/17 06:23:55;;;;;;;46.83;28.30;;;10.70;98.20;;;;;;4926904;28;20506;-75
2022/03/17 06:26:21;;;;;;;56.30;31.13;;;10.60;96.80;;;;;;4928521;28;20886;-75
2022/03/17 06:28:46;;;;;;;56.50;32.53;;;10.50;99.90;;;;;;4931290;28;20977;-75
2022/03/17 06:31:12;;;;;;;65.80;34.67;;;10.40;99.90;;;;;;4934297;28;20937;-75
2022/03/17 06:33:38;;;;;;;63.05;33.50;;;10.30;99.90;;;;;;4937266;28;20441;-75
2022/03/17 06:36:04;;;;;;;70.45;35.60;;;10.30;99.90;;;;;;4933142;28;20407;-75
2022/03/17 06:38:30;;;;;;;67.40;34.92;;;10.10;99.90;;;;;;4931958;28;20411;-75
2022/03/17 06:40:55;;;;;;;65.75;33.05;;;10.10;99.90;;;;;;4933294;28;20416;-75
2022/03/17 06:43:21;;;;;;;59.83;33.20;;;10.10;99.90;;;;;;4935009;29;20411;-75
2022/03/17 06:45:47;;;;;;;62.13;32.95;;;10.10;99.90;;;;;;4934578;28;20410;-75
2022/03/17 06:48:12;;;;;;;62.53;33.10;;;10.00;99.90;;;;;;4926212;28;20437;-75
2022/03/17 06:50:38;;;;;;;60.17;31.20;;;10.00;99.90;;;;;;4916227;28;20403;-74
2022/03/17 06:53:03;;;;;;;50.90;27.90;;;9.90;97.10;;;;;;4934317;29;20414;-75
2022/03/17 06:55:31;;;;;;;52.73;27.80;;;9.90;97.40;;;;;;4941091;28;20404;-74
2022/03/17 06:57:56;;;;;;;48.92;26.48;;;9.90;96.00;;;;;;4941393;28;20415;-74
2022/03/17 07:00:22;;;;;;;47.90;26.47;;;9.90;92.90;;;;;;4934265;28;20727;-76
2022/03/17 07:02:48;;;;;;;51.23;26.10;;;9.90;90.90;;;;;;4914286;28;20435;-76
2022/03/17 07:05:14;;;;;;;46.33;25.80;;;10.00;88.30;;;;;;4935775;28;20964;-75
2022/03/17 07:07:40;;;;;;;45.35;23.45;;;9.90;91.10;;;;;;4913427;28;20419;-74
2022/03/17 07:10:07;;;;;;;44.80;23.57;;;10.00;87.30;;;;;;4929057;28;20415;-74
2022/03/17 07:12:34;;;;;;;42.08;24.17;;;10.00;84.80;;;;;;4930215;29;20404;-74
2022/03/17 07:15:00;;;;;;;42.88;22.17;;;10.00;85.20;;;;;;4928813;28;20446;-75
2022/03/17 07:17:26;;;;;;;48.73;23.93;;;10.10;83.60;;;;;;4930162;28;20901;-76
2022/03/17 07:22:27;;;;;;;40.10;20.15;;;9.80;81.00;;;;;;4927069;28;20420;-75
2022/03/17 07:24:53;;;;;;;43.17;18.80;;;9.70;79.30;;;;;;4932472;28;20464;-76
2022/03/17 07:27:21;;;;;;;36.63;18.00;;;9.60;80.20;;;;;;4930409;28;20783;-75
2022/03/17 07:29:47;;;;;;;51.80;21.30;;;9.50;82.70;;;;;;4916602;28;20417;-76
2022/03/17 07:32:12;;;;;;;44.95;22.30;;;9.40;84.00;;;;;;4931564;28;20495;-75
2022/03/17 07:34:38;;;;;;;31.10;14.13;;;9.30;82.00;;;;;;4959211;28;20446;-74
2022/03/17 07:37:04;;;;;;;34.03;17.37;;;9.20;81.30;;;;;;4957855;28;20404;-74
2022/03/17 07:39:30;;;;;;;32.78;16.63;;;9.20;83.00;;;;;;4938688;28;20447;-75
2022/03/17 07:41:55;;;;;;;37.17;16.90;;;9.20;81.00;;;;;;4936724;28;20430;-76
2022/03/17 07:44:21;;;;;;;24.25;11.82;;;9.20;81.10;;;;;;4934533;28;20935;-75
2022/03/17 07:46:48;;;;;;;20.70;8.80;;;9.10;75.80;;;;;;4940087;28;20803;-76
2022/03/17 07:49:13;;;;;;;15.20;8.43;;;9.00;69.20;;;;;;4932787;28;20402;-77
2022/03/17 07:51:40;;;;;;;16.10;7.75;;;9.00;69.60;;;;;;4959465;28;20495;-74
2022/03/17 07:54:07;;;;;;;16.33;8.02;;;8.90;67.30;;;;;;4929793;28;20419;-74
2022/03/17 07:56:33;;;;;;;16.50;7.55;;;9.00;70.70;;;;;;4939589;28;20404;-75
2022/03/17 07:58:59;;;;;;;19.67;6.95;;;9.00;68.30;;;;;;4933864;28;20407;-75
2022/03/17 08:01:25;;;;;;;13.27;6.30;;;9.10;66.10;;;;;;4946892;28;20415;-74
2022/03/17 08:03:53;;;;;;;17.10;6.53;;;9.10;62.60;;;;;;4936799;28;20770;-75
2022/03/17 08:06:19;;;;;;;15.33;6.00;;;9.10;63.40;;;;;;4932655;28;20449;-76
2022/03/17 08:08:46;;;;;;;15.35;5.60;;;9.20;64.00;;;;;;4905355;28;20412;-75
2022/03/17 08:11:12;;;;;;;8.77;4.22;;;9.20;60.80;;;;;;4927775;28;20444;-75
2022/03/17 08:13:39;;;;;;;13.57;4.75;;;9.00;60.60;;;;;;4936719;29;20426;-77
2022/03/17 08:16:06;;;;;;;13.23;4.90;;;9.00;63.90;;;;;;4919161;28;20885;-74
2022/03/17 08:18:34;;;;;;;9.00;4.80;;;8.90;60.70;;;;;;4921395;28;20918;-75
2022/03/17 08:20:59;;;;;;;10.20;5.22;;;9.00;62.20;;;;;;4930649;28;20427;-77
2022/03/17 08:23:25;;;;;;;13.25;4.97;;;9.00;63.20;;;;;;4931661;28;20869;-76
2022/03/17 08:25:51;;;;;;;7.53;3.53;;;9.20;57.90;;;;;;4921250;28;20423;-75
2022/03/17 08:28:18;;;;;;;8.10;4.27;;;9.10;56.90;;;;;;4936493;28;20438;-75
2022/03/17 08:30:48;;;;;;;9.18;3.78;;;9.30;57.00;;;;;;4938170;28;20411;-74
2022/03/17 08:33:17;;;;;;;5.38;2.55;;;9.20;53.30;;;;;;4942559;28;20414;-76
2022/03/17 08:35:43;;;;;;;6.57;3.00;;;9.00;51.80;;;;;;4939997;28;22140;-75
2022/03/17 08:38:10;;;;;;;7.70;2.88;;;9.10;53.70;;;;;;4931586;28;20430;-77
2022/03/17 08:40:38;;;;;;;5.55;2.65;;;9.10;51.80;;;;;;4931723;28;20403;-75
2022/03/17 08:43:05;;;;;;;6.10;2.70;;;9.10;51.10;;;;;;4932691;28;20406;-76
2022/03/17 08:50:58;;;;;;;4.40;2.53;;;9.10;48.50;;;;;;4932722;29;20410;-74
2022/03/17 08:53:24;;;;;;;10.27;1.90;;;9.20;50.40;;;;;;4917272;28;20797;-74
2022/03/17 08:55:49;;;;;;;12.30;2.90;;;9.20;47.00;;;;;;4934260;28;20425;-76
2022/03/17 08:58:16;;;;;;;7.07;1.90;;;9.30;48.50;;;;;;4934823;28;20449;-76
2022/03/17 09:00:42;;;;;;;9.05;2.47;;;9.40;46.20;;;;;;4930957;28;20418;-76
2022/03/17 09:03:08;;;;;;;8.25;2.05;;;9.50;46.40;;;;;;4929970;28;20496;-75
2022/03/17 09:05:35;;;;;;;2.92;1.70;;;9.50;45.20;;;;;;4915939;28;20939;-76
2022/03/17 09:08:04;;;;;;;7.78;2.70;;;9.30;46.20;;;;;;4933387;28;20445;-78
2022/03/17 09:10:34;;;;;;;6.95;2.90;;;9.40;46.90;;;;;;4936793;28;20403;-74
2022/03/17 09:13:06;;;;;;;4.55;1.98;;;9.50;45.30;;;;;;4936424;28;20426;-75
2022/03/17 09:15:32;;;;;;;5.03;2.85;;;9.50;46.00;;;;;;4934490;28;20396;-75
2022/03/17 09:17:58;;;;;;;8.02;3.10;;;9.60;46.70;;;;;;4934646;28;20411;-77
2022/03/17 09:20:24;;;;;;;8.23;3.17;;;9.70;46.30;;;;;;4937650;28;20442;-75
2022/03/17 09:22:50;;;;;;;8.88;3.13;;;9.90;48.00;;;;;;4942405;28;20419;-76
2022/03/17 09:25:18;;;;;;;11.65;3.90;;;9.80;45.30;;;;;;4934412;28;20408;-76
2022/03/17 09:27:44;;;;;;;13.07;3.05;;;9.80;45.40;;;;;;4922584;28;20444;-75
2022/03/17 09:30:10;;;;;;;8.80;3.55;;;9.90;44.60;;;;;;4938861;28;20679;-75
2022/03/17 09:32:35;;;;;;;4.45;2.55;;;9.80;45.00;;;;;;4938532;28;20407;-76
2022/03/17 09:35:02;;;;;;;9.90;2.83;;;9.60;46.80;;;;;;4935798;28;20911;-77
2022/03/17 09:37:28;;;;;;;4.50;2.75;;;9.60;48.20;;;;;;4935784;28;20408;-75
2022/03/17 09:39:54;;;;;;;6.30;2.75;;;9.60;48.90;;;;;;4936448;29;20452;-76
2022/03/17 09:42:21;;;;;;;7.57;2.42;;;9.50;48.10;;;;;;4939259;29;20416;-76
2022/03/17 09:44:52;;;;;;;7.30;2.22;;;9.50;49.00;;;;;;4936549;28;20469;-77
2022/03/17 09:47:19;;;;;;;5.88;1.50;;;9.60;45.70;;;;;;4935865;28;20403;-76
2022/03/17 09:49:49;;;;;;;9.77;1.77;;;9.40;44.40;;;;;;4918260;28;20415;-76
2022/03/17 09:52:17;;;;;;;4.93;1.98;;;9.40;46.30;;;;;;4935943;28;20947;-76
2022/03/17 09:54:44;;;;;;;5.53;1.90;;;9.50;47.70;;;;;;4934871;28;20416;-77
2022/03/17 09:57:09;;;;;;;6.95;2.25;;;9.50;47.30;;;;;;4917380;28;20415;-78
2022/03/17 09:59:35;;;;;;;8.15;2.45;;;9.50;47.80;;;;;;4937075;28;20439;-75
2022/03/17 10:02:02;;;;;;;7.32;2.50;;;9.60;48.00;;;;;;4919524;28;20419;-77
2022/03/17 10:04:32;;;;;;;5.07;2.22;;;9.60;48.00;;;;;;4924818;28;20884;-76
2022/03/17 10:06:59;;;;;;;10.80;2.80;;;9.70;47.00;;;;;;4937944;28;20444;-76
2022/03/17 10:09:24;;;;;;;11.02;3.45;;;9.80;46.30;;;;;;4935366;28;20442;-76
2022/03/17 10:12:01;;;;;;;4.80;2.20;;;10.00;48.20;;;;;;4938723;28;20420;-77
2022/03/17 10:14:38;;;;;;;8.43;1.90;;;9.90;44.60;;;;;;4936130;28;20819;-75
2022/03/17 10:17:05;;;;;;;4.20;1.85;;;9.90;44.80;;;;;;4932621;28;20535;-75
2022/03/17 10:19:32;;;;;;;7.70;1.50;;;9.80;43.10;;;;;;4931065;28;20412;-76
2022/03/17 10:22:12;;;;;;;13.70;2.20;;;9.80;42.80;;;;;;4932630;29;20470;-75
2022/03/17 10:24:49;;;;;;;7.95;1.95;;;9.80;43.10;;;;;;4938410;28;20776;-75
2022/03/17 10:27:14;;;;;;;3.05;1.40;;;9.90;42.80;;;;;;4918737;28;20793;-76
2022/03/17 10:29:40;;;;;;;5.95;1.70;;;9.90;42.80;;;;;;4935592;28;20412;-76
2022/03/17 10:32:07;;;;;;;2.45;1.40;;;9.80;43.30;;;;;;4935657;28;20468;-75
2022/03/17 10:34:33;;;;;;;7.50;2.80;;;9.80;43.10;;;;;;4936198;29;20892;-76
2022/03/17 10:37:07;;;;;;;13.30;2.58;;;9.90;43.80;;;;;;4933450;28;20426;-75
2022/03/17 10:39:47;;;;;;;6.75;2.72;;;10.00;41.90;;;;;;4935549;28;20941;-75
2022/03/17 10:42:18;;;;;;;6.18;2.55;;;10.00;42.80;;;;;;4931575;28;20435;-75
2022/03/17 10:44:52;;;;;;;9.13;3.58;;;10.30;40.70;;;;;;4932201;28;20396;-76
2022/03/17 10:47:25;;;;;;;12.52;4.47;;;10.30;40.50;;;;;;4930722;29;20439;-76
2022/03/17 10:50:10;;;;;;;10.75;3.30;;;10.80;39.90;;;;;;4931626;28;20900;-75
2022/03/17 10:52:56;;;;;;;12.60;3.00;;;10.90;38.50;;;;;;4931060;28;20521;-76
2022/03/17 10:55:27;;;;;;;8.57;3.80;;;10.80;38.50;;;;;;4932131;28;20408;-75
2022/03/17 10:57:59;;;;;;;10.15;3.30;;;10.90;39.20;;;;;;4934886;28;20400;-75
2022/03/17 11:00:26;;;;;;;9.45;2.80;;;10.60;38.60;;;;;;4933833;28;20403;-76
2022/03/17 11:02:57;;;;;;;9.38;3.25;;;10.50;38.80;;;;;;4934378;28;20792;-78
2022/03/17 11:05:23;;;;;;;7.32;2.88;;;10.30;39.90;;;;;;4939902;28;20802;-77
2022/03/17 11:07:49;;;;;;;13.33;3.10;;;10.10;39.90;;;;;;4937586;28;20443;-76
2022/03/17 11:10:20;;;;;;;9.27;3.20;;;10.10;40.50;;;;;;4940936;28;20785;-76
2022/03/17 11:12:46;;;;;;;14.15;3.55;;;10.00;42.60;;;;;;4936631;29;20823;-77
2022/03/17 11:15:12;;;;;;;8.20;2.70;;;10.10;41.40;;;;;;4933264;28;20415;-75
2022/03/17 11:17:47;;;;;;;10.13;3.20;;;10.20;42.40;;;;;;4939367;29;20471;-76
2022/03/17 11:20:19;;;;;;;8.30;3.03;;;10.30;41.60;;;;;;4928638;28;20448;-75
2022/03/17 11:23:02;;;;;;;15.20;4.45;;;10.30;42.30;;;;;;4948245;28;20427;-75
2022/03/17 11:25:29;;;;;;;16.60;5.40;;;10.30;41.20;;;;;;4947063;28;20415;-75
2022/03/17 11:28:00;;;;;;;13.98;4.53;;;10.50;41.00;;;;;;4950391;28;20430;-75
2022/03/17 11:30:42;;;;;;;14.00;5.50;;;10.40;40.00;;;;;;4936137;28;20438;-74
2022/03/17 11:33:29;;;;;;;14.73;5.55;;;10.50;38.70;;;;;;4948522;29;20411;-75
2022/03/17 11:35:59;;;;;;;13.45;5.90;;;10.80;38.80;;;;;;4942849;28;20487;-77
2022/03/17 11:38:38;;;;;;;17.25;5.10;;;10.90;37.60;;;;;;4932436;29;20434;-75
2022/03/17 11:41:15;;;;;;;14.45;4.13;;;11.00;36.00;;;;;;4927736;28;20519;-77
2022/03/17 11:43:46;;;;;;;9.17;3.60;;;11.10;35.70;;;;;;4936227;28;20507;-76
2022/03/17 11:46:23;;;;;;;9.20;3.97;;;11.00;35.10;;;;;;4932184;28;20403;-77
2022/03/17 11:48:51;;;;;;;25.60;3.70;;;11.10;34.80;;;;;;4932502;29;20954;-75
2022/03/17 11:51:18;;;;;;;13.50;4.18;;;11.10;33.80;;;;;;4933535;29;20411;-75
2022/03/17 11:53:51;;;;;;;13.13;4.13;;;11.40;33.70;;;;;;4940408;28;20511;-74
2022/03/17 11:56:35;;;;;;;15.97;3.43;;;11.20;34.40;;;;;;4929531;28;20407;-75
2022/03/17 11:59:00;;;;;;;14.68;5.60;;;11.30;33.70;;;;;;4929292;28;20491;-76
2022/03/17 12:01:34;;;;;;;18.77;5.80;;;11.20;31.30;;;;;;4916121;28;20512;-75
2022/03/17 12:04:04;;;;;;;13.02;3.67;;;11.60;31.00;;;;;;4915791;28;20808;-77
2022/03/17 12:06:34;;;;;;;8.82;3.50;;;11.60;28.00;;;;;;4916318;28;20407;-75
2022/03/17 12:09:04;;;;;;;12.48;3.72;;;11.40;28.40;;;;;;4938161;28;20477;-75
2022/03/17 12:11:49;;;;;;;11.67;4.47;;;11.60;27.50;;;;;;4940455;28;20439;-75
2022/03/17 12:14:21;;;;;;;11.00;3.53;;;11.80;26.90;;;;;;4932732;28;20479;-74
2022/03/17 12:16:56;;;;;;;17.90;4.78;;;12.00;26.50;;;;;;4938573;28;20454;-76
2022/03/17 12:19:35;;;;;;;11.93;4.25;;;12.00;26.70;;;;;;4948353;28;20414;-75
2022/03/17 12:22:20;;;;;;;8.40;3.35;;;12.10;25.60;;;;;;4946598;28;20434;-74
2022/03/17 12:24:52;;;;;;;9.75;2.90;;;11.80;26.80;;;;;;4944933;29;20464;-76
2022/03/17 12:27:23;;;;;;;14.35;3.03;;;11.50;26.50;;;;;;4942396;28;20404;-75
2022/03/17 12:29:54;;;;;;;9.40;2.17;;;11.60;26.80;;;;;;4959513;28;20766;-73
2022/03/17 12:32:21;;;;;;;6.88;2.85;;;11.10;27.20;;;;;;4936925;28;20431;-75
2022/03/17 12:34:50;;;;;;;12.48;3.40;;;11.00;28.40;;;;;;4940155;28;20948;-75
2022/03/17 12:37:17;;;;;;;16.92;3.30;;;11.30;28.40;;;;;;4935064;28;20477;-74
2022/03/17 12:39:51;;;;;;;22.55;4.72;;;11.20;27.90;;;;;;4937862;28;20412;-77
2022/03/17 12:42:27;;;;;;;8.02;1.98;;;11.50;28.10;;;;;;4934654;28;20415;-76
2022/03/17 12:45:05;;;;;;;10.18;2.50;;;11.40;27.10;;;;;;4936687;28;20419;-76
2022/03/17 12:47:33;;;;;;;11.27;3.33;;;11.60;27.50;;;;;;4937556;28;20404;-74
2022/03/17 12:50:00;;;;;;;7.80;2.58;;;11.60;26.00;;;;;;4937882;28;20950;-76
2022/03/17 12:52:28;;;;;;;4.77;2.13;;;11.70;25.20;;;;;;4939494;28;20487;-77